Time;durP1;ratioP1;P1;durP2;ratioP2;P2;SDS_P1;SDS_P2;PMS_P1;PMS_P2;Temp;Humidity;BMP_temperature;BMP_pressure;BME280_temperature;BME280_humidity;BME280_pressure;Samples;Min_cycle;Max_cycle;Signal;HPM_P1;HPM_P2
2023/04/16 00:02:24;;;;;;;;;;;7.30;99.90;;;;;;5085557;28;19947;-92
2023/04/16 00:04:50;;;;;;;;;;;7.20;99.90;;;;;;5097105;28;19920;-92
2023/04/16 00:07:19;;;;;;;;;;;7.30;99.90;;;;;;5106048;28;19920;-92
2023/04/16 00:09:45;;;;;;;;;;;7.30;99.90;;;;;;5106046;28;19984;-92
2023/04/16 00:12:12;;;;;;;;;;;7.30;99.90;;;;;;5091443;28;20123;-92
2023/04/16 00:14:39;;;;;;;;;;;7.30;99.90;;;;;;5085385;28;19920;-92
2023/04/16 00:17:05;;;;;;;;;;;7.30;99.90;;;;;;5100818;28;19920;-92
2023/04/16 00:19:32;;;;;;;;;;;7.30;99.90;;;;;;5104650;28;19920;-91
2023/04/16 00:21:59;;;;;;;;;;;7.30;99.90;;;;;;5098064;28;19920;-92
2023/04/16 00:24:36;;;;;;;;;;;7.30;99.90;;;;;;5084847;28;19939;-91
2023/04/16 00:27:03;;;;;;;;;;;7.30;99.90;;;;;;5086795;28;19921;-92
2023/04/16 00:29:31;;;;;;;;;;;7.30;99.90;;;;;;5104812;28;19920;-94
2023/04/16 00:31:57;;;;;;;;;;;7.30;99.90;;;;;;5105289;28;19920;-91
2023/04/16 00:34:24;;;;;;;;;;;7.30;99.90;;;;;;5105757;28;20183;-92
2023/04/16 00:36:51;;;;;;;;;;;7.30;99.90;;;;;;5117298;22;20016;-68
2023/04/16 00:39:19;;;;;;;;;;;7.40;99.90;;;;;;5094296;28;20124;-68
2023/04/16 00:41:48;;;;;;;;;;;7.40;99.90;;;;;;5083637;28;19921;-68
2023/04/16 00:44:14;;;;;;;;;;;7.30;99.90;;;;;;5083279;28;20114;-67
2023/04/16 00:46:42;;;;;;;;;;;7.30;99.90;;;;;;5082654;28;20120;-67
2023/04/16 00:49:09;;;;;;;;;;;7.30;99.90;;;;;;5083266;28;19920;-68
2023/04/16 00:51:36;;;;;;;;;;;7.30;99.90;;;;;;5082775;28;19980;-68
2023/04/16 00:54:03;;;;;;;;;;;7.30;99.90;;;;;;5083595;28;19955;-68
2023/04/16 00:56:30;;;;;;;;;;;7.30;99.90;;;;;;5083148;28;20146;-68
2023/04/16 00:58:59;;;;;;;;;;;7.30;99.90;;;;;;5081599;28;19920;-68
2023/04/16 01:01:26;;;;;;;;;;;7.30;99.90;;;;;;5083124;28;20474;-68
2023/04/16 01:03:52;;;;;;;;;;;7.30;99.90;;;;;;5083041;28;19956;-68
2023/04/16 01:06:19;;;;;;;;;;;7.30;99.90;;;;;;5082798;28;19928;-67
2023/04/16 01:08:46;;;;;;;;;;;7.30;99.90;;;;;;5082901;28;19927;-68
2023/04/16 01:11:14;;;;;;;;;;;7.30;99.90;;;;;;5082971;28;19920;-68
2023/04/16 01:13:40;;;;;;;;;;;7.30;99.90;;;;;;5083327;28;19927;-68
2023/04/16 01:16:09;;;;;;;;;;;7.40;99.90;;;;;;5083140;28;19988;-67
2023/04/16 01:18:36;;;;;;;;;;;7.40;99.90;;;;;;5063223;28;19920;-68
2023/04/16 01:21:04;;;;;;;;;;;7.40;99.90;;;;;;5063019;28;19959;-68
2023/04/16 01:23:31;;;;;;;;;;;7.40;99.90;;;;;;5063180;28;20127;-68
2023/04/16 01:25:58;;;;;;;;;;;7.40;99.90;;;;;;5047094;28;19921;-68
2023/04/16 01:28:24;;;;;;;;;;;7.40;99.90;;;;;;5062699;28;19921;-68
2023/04/16 01:30:51;;;;;;;;;;;7.40;99.90;;;;;;5065754;28;19921;-69
2023/04/16 01:33:18;;;;;;;;;;;7.40;99.90;;;;;;5066895;28;19955;-68
2023/04/16 01:35:44;;;;;;;;;;;7.40;99.90;;;;;;5066845;28;19927;-68
2023/04/16 01:38:13;;;;;;;;;;;7.40;99.90;;;;;;5065870;28;20283;-69
2023/04/16 01:40:39;;;;;;;;;;;7.40;99.90;;;;;;5066860;28;19938;-68
2023/04/16 01:43:06;;;;;;;;;;;7.40;99.90;;;;;;5066886;28;19952;-68
2023/04/16 01:45:33;;;;;;;;;;;7.40;99.90;;;;;;5066459;28;20259;-69
2023/04/16 01:48:00;;;;;;;;;;;7.40;99.90;;;;;;5065554;28;20116;-68
2023/04/16 01:50:26;;;;;;;;;;;7.40;99.90;;;;;;5066437;28;19953;-68
2023/04/16 01:52:53;;;;;;;;;;;7.40;99.90;;;;;;5066711;28;20112;-69
2023/04/16 01:55:21;;;;;;;;;;;7.40;99.90;;;;;;5066504;28;19984;-68
2023/04/16 01:57:48;;;;;;;;;;;7.40;99.90;;;;;;5066274;28;19921;-69
2023/04/16 02:00:14;;;;;;;;;;;7.40;99.90;;;;;;5066113;28;19920;-67
2023/04/16 02:02:41;;;;;;;;;;;7.40;99.90;;;;;;5066122;28;19928;-68
2023/04/16 02:05:08;;;;;;;;;;;7.50;99.90;;;;;;5066460;28;19985;-69
2023/04/16 02:07:35;;;;;;;;;;;7.40;99.90;;;;;;5066035;28;19962;-67
2023/04/16 02:10:03;;;;;;;;;;;7.50;99.90;;;;;;5066003;28;19927;-68
2023/04/16 02:12:31;;;;;;;;;;;7.50;99.90;;;;;;5065974;28;19928;-69
2023/04/16 02:14:58;;;;;;;;;;;7.50;99.90;;;;;;5065980;28;19980;-68
2023/04/16 02:17:24;;;;;;;;;;;7.50;99.90;;;;;;5065812;28;19971;-69
2023/04/16 02:19:51;;;;;;;;;;;7.50;99.90;;;;;;5065944;28;19979;-68
2023/04/16 02:22:20;;;;;;;;;;;7.50;99.90;;;;;;5065445;28;19962;-69
2023/04/16 02:24:47;;;;;;;;;;;7.50;99.90;;;;;;5065836;28;19953;-68
2023/04/16 02:27:13;;;;;;;;;;;7.50;99.90;;;;;;5065731;28;19956;-68
2023/04/16 02:29:41;;;;;;;;;;;7.50;99.90;;;;;;5065516;28;19939;-69
2023/04/16 02:32:08;;;;;;;;;;;7.50;99.90;;;;;;5065197;28;20031;-69
2023/04/16 02:34:34;;;;;;;;;;;7.50;99.90;;;;;;5066083;28;19927;-68
2023/04/16 02:37:01;;;;;;;;;;;7.50;99.90;;;;;;5065504;28;20000;-69
2023/04/16 02:39:28;;;;;;;;;;;7.50;99.90;;;;;;5065861;28;19996;-68
2023/04/16 02:41:55;;;;;;;;;;;7.50;99.90;;;;;;5064766;28;19963;-68
2023/04/16 02:44:21;;;;;;;;;;;7.50;99.90;;;;;;5065304;28;19967;-68
2023/04/16 02:46:49;;;;;;;;;;;7.50;99.90;;;;;;5065486;28;19920;-68
2023/04/16 02:49:16;;;;;;;;;;;7.50;99.90;;;;;;5065610;28;19920;-69
2023/04/16 02:51:42;;;;;;;;;;;7.50;99.90;;;;;;5065498;28;20162;-69
2023/04/16 02:54:09;;;;;;;;;;;7.60;99.90;;;;;;5065170;28;20224;-68
2023/04/16 02:56:36;;;;;;;;;;;7.50;99.90;;;;;;5065226;28;19921;-69
2023/04/16 02:59:02;;;;;;;;;;;7.50;99.90;;;;;;5065514;28;20152;-68
2023/04/16 03:01:29;;;;;;;;;;;7.50;99.90;;;;;;5064673;28;19928;-68
2023/04/16 03:03:57;;;;;;;;;;;7.50;99.90;;;;;;5065412;28;19955;-68
2023/04/16 03:06:23;;;;;;;;;;;7.50;99.90;;;;;;5064574;28;19921;-68
2023/04/16 03:08:50;;;;;;;;;;;7.50;99.90;;;;;;5065051;28;19927;-68
2023/04/16 03:11:16;;;;;;;;;;;7.50;99.90;;;;;;5065156;28;19995;-67
2023/04/16 03:13:43;;;;;;;;;;;7.50;99.90;;;;;;5065054;28;19948;-68
2023/04/16 03:16:10;;;;;;;;;;;7.50;99.90;;;;;;5064900;28;19921;-69
2023/04/16 03:18:37;;;;;;;;;;;7.50;99.90;;;;;;5064875;28;19920;-68
2023/04/16 03:21:05;;;;;;;;;;;7.50;99.90;;;;;;5064783;28;19985;-69
2023/04/16 03:23:32;;;;;;;;;;;7.60;99.90;;;;;;5064870;28;19930;-69
2023/04/16 03:25:59;;;;;;;;;;;7.60;99.90;;;;;;5064888;28;20124;-68
2023/04/16 03:28:25;;;;;;;;;;;7.60;99.90;;;;;;5064793;28;19966;-69
2023/04/16 03:30:52;;;;;;;;;;;7.60;99.90;;;;;;5064566;28;19920;-68
2023/04/16 03:33:19;;;;;;;;;;;7.60;99.90;;;;;;5064498;28;20209;-69
2023/04/16 03:35:45;;;;;;;;;;;7.60;99.90;;;;;;5064369;28;19927;-68
2023/04/16 03:38:13;;;;;;;;;;;7.60;99.90;;;;;;5064292;28;20123;-69
2023/04/16 03:40:42;;;;;;;;;;;7.60;99.90;;;;;;5064264;28;19928;-69
2023/04/16 03:43:14;;;;;;;;;;;7.60;99.90;;;;;;5063511;28;19984;-69
2023/04/16 03:45:43;;;;;;;;;;;7.60;99.90;;;;;;5064075;28;19920;-69
2023/04/16 03:48:10;;;;;;;;;;;7.60;99.90;;;;;;5064304;28;19927;-68
2023/04/16 03:50:36;;;;;;;;;;;7.70;99.90;;;;;;5064061;28;19921;-69
2023/04/16 03:53:03;;;;;;;;;;;7.70;99.90;;;;;;5063656;28;19952;-69
2023/04/16 03:55:31;;;;;;;;;;;7.70;99.90;;;;;;5064257;28;19927;-69
2023/04/16 03:58:01;;;;;;;;;;;7.70;99.90;;;;;;5064268;28;20007;-68
2023/04/16 04:00:28;;;;;;;;;;;7.70;99.90;;;;;;5063785;28;19920;-68
2023/04/16 04:02:55;;;;;;;;;;;7.80;99.90;;;;;;5064153;28;19948;-68
2023/04/16 04:05:21;;;;;;;;;;;7.70;99.90;;;;;;5063789;28;19988;-69
2023/04/16 04:07:48;;;;;;;;;;;7.70;99.90;;;;;;5063598;28;20128;-67
2023/04/16 04:10:15;;;;;;;;;;;7.80;99.90;;;;;;5063767;28;19988;-68
2023/04/16 04:12:43;;;;;;;;;;;7.80;99.90;;;;;;5064029;28;19927;-69
2023/04/16 04:15:10;;;;;;;;;;;7.80;99.90;;;;;;5064084;28;19952;-69
2023/04/16 04:17:37;;;;;;;;;;;7.70;99.90;;;;;;5063467;28;19928;-69
2023/04/16 04:20:03;;;;;;;;;;;7.80;99.90;;;;;;5063934;28;19943;-69
2023/04/16 04:22:30;;;;;;;;;;;7.70;99.90;;;;;;5064008;28;19920;-70
2023/04/16 04:24:57;;;;;;;;;;;7.70;99.90;;;;;;5063395;28;19960;-69
2023/04/16 04:27:23;;;;;;;;;;;7.80;99.90;;;;;;5063651;28;19948;-69
2023/04/16 04:29:51;;;;;;;;;;;7.80;99.90;;;;;;5063657;28;19992;-69
2023/04/16 04:32:18;;;;;;;;;;;7.70;99.90;;;;;;5063390;28;20264;-69
2023/04/16 04:34:45;;;;;;;;;;;7.70;99.90;;;;;;5063545;28;19992;-69
2023/04/16 04:37:11;;;;;;;;;;;7.80;99.90;;;;;;5063213;28;19980;-69
2023/04/16 04:39:38;;;;;;;;;;;7.80;99.90;;;;;;5063450;28;19988;-68
2023/04/16 04:42:04;;;;;;;;;;;7.90;99.90;;;;;;5062309;28;19980;-69
2023/04/16 04:44:31;;;;;;;;;;;7.90;99.90;;;;;;5063699;28;19921;-68
2023/04/16 04:46:59;;;;;;;;;;;7.90;99.90;;;;;;5062977;28;19992;-68
2023/04/16 04:49:26;;;;;;;;;;;7.90;99.90;;;;;;5063609;28;19921;-69
2023/04/16 04:51:52;;;;;;;;;;;7.80;99.90;;;;;;5063113;28;20180;-68
2023/04/16 04:54:19;;;;;;;;;;;7.90;99.90;;;;;;5063354;28;19992;-69
2023/04/16 04:56:46;;;;;;;;;;;7.80;99.90;;;;;;5063324;28;19928;-67
2023/04/16 04:59:12;;;;;;;;;;;7.80;99.90;;;;;;5063470;28;19955;-68
2023/04/16 05:01:39;;;;;;;;;;;7.80;99.90;;;;;;5063219;28;19920;-68
2023/04/16 05:04:07;;;;;;;;;;;7.80;99.90;;;;;;5063838;28;19921;-69
2023/04/16 05:06:34;;;;;;;;;;;7.80;99.90;;;;;;5067074;28;19949;-69
2023/04/16 05:09:00;;;;;;;;;;;7.80;99.90;;;;;;5067575;28;19984;-69
2023/04/16 05:11:27;;;;;;;;;;;7.90;99.90;;;;;;5067270;28;20003;-69
2023/04/16 05:13:53;;;;;;;;;;;7.90;99.90;;;;;;5064407;28;21968;-69
2023/04/16 05:16:20;;;;;;;;;;;7.80;99.90;;;;;;5057289;28;19927;-68
2023/04/16 05:18:47;;;;;;;;;;;7.90;99.90;;;;;;5067099;28;20259;-68
2023/04/16 05:21:15;;;;;;;;;;;7.80;99.90;;;;;;5047092;28;19952;-68
2023/04/16 05:23:41;;;;;;;;;;;7.90;99.90;;;;;;5047430;28;20147;-69
2023/04/16 05:26:08;;;;;;;;;;;7.90;99.90;;;;;;5046858;28;19964;-69
2023/04/16 05:28:35;;;;;;;;;;;7.90;99.90;;;;;;5059225;28;19927;-68
2023/04/16 05:31:01;;;;;;;;;;;8.00;99.90;;;;;;5066835;28;20179;-69
2023/04/16 05:33:28;;;;;;;;;;;8.00;99.90;;;;;;5066838;28;20248;-69
2023/04/16 05:35:54;;;;;;;;;;;8.00;99.90;;;;;;5066542;28;19921;-68
2023/04/16 05:38:22;;;;;;;;;;;8.00;99.90;;;;;;5066499;28;19983;-68
2023/04/16 05:40:50;;;;;;;;;;;7.90;99.90;;;;;;5066266;28;19921;-69
2023/04/16 05:43:17;;;;;;;;;;;7.90;99.90;;;;;;5065597;28;19983;-68
2023/04/16 05:45:43;;;;;;;;;;;7.90;99.90;;;;;;5066641;28;19991;-69
2023/04/16 05:48:11;;;;;;;;;;;7.90;99.90;;;;;;5066768;28;19921;-69
2023/04/16 05:50:38;;;;;;;;;;;8.00;99.90;;;;;;5066826;28;19927;-68
2023/04/16 05:53:05;;;;;;;;;;;8.00;99.90;;;;;;5066293;28;19921;-68
2023/04/16 05:55:34;;;;;;;;;;;8.00;99.90;;;;;;5066293;28;19921;-69
2023/04/16 05:58:03;;;;;;;;;;;8.00;99.90;;;;;;5066383;28;19927;-68
2023/04/16 06:00:29;;;;;;;;;;;8.00;99.90;;;;;;5066234;28;20100;-68
2023/04/16 06:02:56;;;;;;;;;;;8.00;99.90;;;;;;5066365;28;19920;-68
2023/04/16 06:05:23;;;;;;;;;;;8.00;99.90;;;;;;5066194;28;19921;-68
2023/04/16 06:07:49;;;;;;;;;;;8.00;99.90;;;;;;5066147;28;19987;-69
2023/04/16 06:10:16;;;;;;;;;;;8.00;99.90;;;;;;5066323;28;20211;-68
2023/04/16 06:12:44;;;;;;;;;;;8.00;99.90;;;;;;5066099;28;19927;-68
2023/04/16 06:15:11;;;;;;;;;;;8.00;99.90;;;;;;5065817;28;19925;-68
2023/04/16 06:17:37;;;;;;;;;;;8.00;99.90;;;;;;5064335;28;19955;-68
2023/04/16 06:20:04;;;;;;;;;;;8.00;99.90;;;;;;5065679;28;20200;-68
2023/04/16 06:22:31;;;;;;;;;;;8.00;99.90;;;;;;5065505;28;19927;-68
2023/04/16 06:24:58;;;;;;;;;;;8.00;99.90;;;;;;5065837;28;19984;-68
2023/04/16 06:27:24;;;;;;;;;;;8.00;99.90;;;;;;5065780;28;19928;-68
2023/04/16 06:29:52;;;;;;;;;;;8.00;99.90;;;;;;5065802;28;19963;-69
2023/04/16 06:32:19;;;;;;;;;;;8.10;99.90;;;;;;5065567;28;19975;-69
2023/04/16 06:34:46;;;;;;;;;;;8.10;99.90;;;;;;5065957;28;19927;-68
2023/04/16 06:37:15;;;;;;;;;;;8.00;99.90;;;;;;5064955;28;20239;-68
2023/04/16 06:39:41;;;;;;;;;;;8.00;99.90;;;;;;5065867;28;19928;-69
2023/04/16 06:42:10;;;;;;;;;;;8.00;99.90;;;;;;5065237;28;19983;-69
2023/04/16 06:44:37;;;;;;;;;;;8.00;99.90;;;;;;5065400;28;19921;-68
2023/04/16 06:47:05;;;;;;;;;;;8.00;99.90;;;;;;5065665;28;19927;-69
2023/04/16 06:49:31;;;;;;;;;;;8.00;99.90;;;;;;5065534;28;20227;-69
2023/04/16 06:51:58;;;;;;;;;;;8.10;99.90;;;;;;5065632;28;20227;-69
2023/04/16 06:54:24;;;;;;;;;;;8.10;99.90;;;;;;5065458;28;19991;-69
2023/04/16 06:56:51;;;;;;;;;;;8.10;99.90;;;;;;5065340;28;19955;-69
2023/04/16 06:59:18;;;;;;;;;;;8.10;99.90;;;;;;5065451;28;19944;-69
2023/04/16 07:01:44;;;;;;;;;;;8.10;99.90;;;;;;5064956;28;20230;-69
2023/04/16 07:04:12;;;;;;;;;;;8.10;99.90;;;;;;5065615;28;19952;-67
2023/04/16 07:06:39;;;;;;;;;;;8.10;99.90;;;;;;5065319;28;19920;-69
2023/04/16 07:09:05;;;;;;;;;;;8.10;99.90;;;;;;5065358;28;19927;-69
2023/04/16 07:11:32;;;;;;;;;;;8.10;99.90;;;;;;5065382;28;20003;-69
2023/04/16 07:13:59;;;;;;;;;;;8.10;99.90;;;;;;5064838;28;19987;-69
2023/04/16 07:16:25;;;;;;;;;;;8.10;99.90;;;;;;5059940;28;19992;-67
2023/04/16 07:18:57;;;;;;;;;;;8.10;99.90;;;;;;5065004;28;19928;-68
2023/04/16 07:21:26;;;;;;;;;;;8.10;99.90;;;;;;5063366;28;19966;-68
2023/04/16 07:23:54;;;;;;;;;;;8.20;99.90;;;;;;5061807;28;19920;-68
2023/04/16 07:26:21;;;;;;;;;;;8.10;99.90;;;;;;5064411;28;19921;-69
2023/04/16 07:28:47;;;;;;;;;;;8.10;99.90;;;;;;5064726;28;20168;-69
2023/04/16 07:31:14;;;;;;;;;;;8.10;99.90;;;;;;5064691;28;19980;-68
2023/04/16 07:33:40;;;;;;;;;;;8.10;99.90;;;;;;5064965;28;19921;-68
2023/04/16 07:36:07;;;;;;;;;;;8.10;99.90;;;;;;5064635;28;20141;-69
2023/04/16 07:38:35;;;;;;;;;;;8.10;99.90;;;;;;5064678;28;19921;-68
2023/04/16 07:41:02;;;;;;;;;;;8.20;99.90;;;;;;5064587;28;19963;-68
2023/04/16 07:43:29;;;;;;;;;;;8.20;99.90;;;;;;5064603;28;19988;-68
2023/04/16 07:45:55;;;;;;;;;;;8.20;99.90;;;;;;5064589;28;20144;-69
2023/04/16 07:48:22;;;;;;;;;;;8.20;99.90;;;;;;5064344;28;19921;-69
2023/04/16 07:50:49;;;;;;;;;;;8.10;99.90;;;;;;5064274;28;19950;-67
2023/04/16 07:53:15;;;;;;;;;;;8.20;99.90;;;;;;5064316;28;19925;-69
2023/04/16 07:55:43;;;;;;;;;;;8.10;99.90;;;;;;5064069;28;19948;-68
2023/04/16 07:58:10;;;;;;;;;;;8.10;99.90;;;;;;5064390;28;19927;-69
2023/04/16 08:00:37;;;;;;;;;;;8.20;99.90;;;;;;5063695;28;20336;-69
2023/04/16 08:03:03;;;;;;;;;;;8.10;99.90;;;;;;5063110;28;19992;-69
2023/04/16 08:05:30;;;;;;;;;;;8.10;99.90;;;;;;5062225;28;20247;-69
2023/04/16 08:07:57;;;;;;;;;;;8.10;99.90;;;;;;5063527;28;19984;-69
2023/04/16 08:10:23;;;;;;;;;;;8.20;99.90;;;;;;5063465;28;19963;-69
2023/04/16 08:12:51;;;;;;;;;;;8.20;99.90;;;;;;5063963;28;19963;-69
2023/04/16 08:15:18;;;;;;;;;;;8.20;99.90;;;;;;5063774;28;19920;-69
2023/04/16 08:17:45;;;;;;;;;;;8.20;99.90;;;;;;5063672;28;19927;-69
2023/04/16 08:20:11;;;;;;;;;;;8.20;99.90;;;;;;5063905;28;19948;-69
2023/04/16 08:22:38;;;;;;;;;;;8.30;99.90;;;;;;5062607;28;19991;-69
2023/04/16 08:25:05;;;;;;;;;;;8.20;99.90;;;;;;5063689;28;19991;-69
2023/04/16 08:27:32;;;;;;;;;;;8.30;99.90;;;;;;5063153;28;19983;-68
2023/04/16 08:29:59;;;;;;;;;;;8.30;99.90;;;;;;5063806;28;19955;-68
2023/04/16 08:32:26;;;;;;;;;;;8.30;99.90;;;;;;5062739;28;20204;-69
2023/04/16 08:34:53;;;;;;;;;;;8.30;99.90;;;;;;5062968;28;19920;-69
2023/04/16 08:37:20;;;;;;;;;;;8.40;99.90;;;;;;5062893;28;19988;-67
2023/04/16 08:39:46;;;;;;;;;;;8.40;99.90;;;;;;5062737;28;20004;-69
2023/04/16 08:42:18;;;;;;;;;;;8.40;99.90;;;;;;5063249;28;20071;-69
2023/04/16 08:44:48;;;;;;;;;;;8.40;99.90;;;;;;5063211;28;20259;-68
2023/04/16 08:47:16;;;;;;;;;;;8.40;99.90;;;;;;5062894;28;19927;-69
2023/04/16 08:49:44;;;;;;;;;;;8.40;99.90;;;;;;5062813;28;19921;-69
2023/04/16 08:52:12;;;;;;;;;;;8.40;99.90;;;;;;5062651;28;19928;-69
2023/04/16 08:54:43;;;;;;;;;;;8.40;99.90;;;;;;5063181;28;20231;-69
2023/04/16 08:57:10;;;;;;;;;;;8.50;99.90;;;;;;5062922;28;19927;-68
2023/04/16 08:59:38;;;;;;;;;;;8.50;99.90;;;;;;5062235;28;19921;-69
2023/04/16 09:02:06;;;;;;;;;;;8.50;99.90;;;;;;5063199;28;19935;-69
2023/04/16 09:04:40;;;;;;;;;;;8.60;99.90;;;;;;5062071;28;19921;-69
2023/04/16 09:07:08;;;;;;;;;;;8.60;99.90;;;;;;5054761;28;19989;-69
2023/04/16 09:09:35;;;;;;;;;;;8.60;99.90;;;;;;5063082;28;19920;-69
2023/04/16 09:12:01;;;;;;;;;;;8.70;99.90;;;;;;5063116;28;19967;-69
2023/04/16 09:14:28;;;;;;;;;;;8.60;99.90;;;;;;5062634;28;19983;-69
2023/04/16 09:16:55;;;;;;;;;;;8.60;99.90;;;;;;5062965;28;19960;-68
2023/04/16 09:19:22;;;;;;;;;;;8.50;99.90;;;;;;5062965;28;19955;-69
2023/04/16 09:21:50;;;;;;;;;;;8.50;99.90;;;;;;5063147;28;19996;-68
2023/04/16 09:24:18;;;;;;;;;;;8.50;99.90;;;;;;5063132;28;20019;-67
2023/04/16 09:26:44;;;;;;;;;;;8.50;99.90;;;;;;5062306;28;19921;-68
2023/04/16 09:29:11;;;;;;;;;;;8.50;99.90;;;;;;5062906;28;19983;-67
2023/04/16 09:31:38;;;;;;;;;;;8.50;99.90;;;;;;5062911;28;19984;-68
2023/04/16 09:34:05;;;;;;;;;;;8.50;99.90;;;;;;5063054;28;20176;-68
2023/04/16 09:36:32;;;;;;;;;;;8.50;99.90;;;;;;5062294;28;19927;-69
2023/04/16 09:39:01;;;;;;;;;;;8.60;99.90;;;;;;5063000;28;19927;-68
2023/04/16 09:41:28;;;;;;;;;;;8.60;99.90;;;;;;5063081;28;19952;-67
2023/04/16 09:43:56;;;;;;;;;;;8.60;99.90;;;;;;5062500;28;20216;-68
2023/04/16 09:46:23;;;;;;;;;;;8.60;99.90;;;;;;5042974;28;19921;-68
2023/04/16 09:48:49;;;;;;;;;;;8.60;99.90;;;;;;5056428;28;20263;-67
2023/04/16 09:51:16;;;;;;;;;;;8.60;99.90;;;;;;5058247;28;19996;-68
2023/04/16 09:53:43;;;;;;;;;;;8.60;99.90;;;;;;5056431;28;19988;-68
2023/04/16 09:56:11;;;;;;;;;;;8.60;99.90;;;;;;5066354;28;19992;-67
2023/04/16 09:58:38;;;;;;;;;;;8.70;99.90;;;;;;5059567;28;19921;-68
2023/04/16 10:01:06;;;;;;;;;;;8.70;99.90;;;;;;5066561;28;19948;-68
2023/04/16 10:03:33;;;;;;;;;;;8.70;99.90;;;;;;5066183;28;20175;-68
2023/04/16 10:06:01;;;;;;;;;;;8.80;99.90;;;;;;5065907;28;20043;-68
2023/04/16 10:08:28;;;;;;;;;;;8.80;99.90;;;;;;5077721;28;20204;-68
2023/04/16 10:10:55;;;;;;;;;;;8.80;99.90;;;;;;5085634;28;19952;-68
2023/04/16 10:13:26;;;;;;;;;;;8.80;99.90;;;;;;5086076;28;20208;-68
2023/04/16 10:15:55;;;;;;;;;;;8.80;99.90;;;;;;5086248;28;20111;-68
2023/04/16 10:18:22;;;;;;;;;;;8.90;99.90;;;;;;5085871;28;19959;-68
2023/04/16 10:20:49;;;;;;;;;;;8.80;99.90;;;;;;5086130;28;19958;-68
2023/04/16 10:23:15;;;;;;;;;;;8.90;99.90;;;;;;5080655;28;19927;-69
2023/04/16 10:25:43;;;;;;;;;;;8.90;99.90;;;;;;5065914;28;19993;-68
2023/04/16 10:28:10;;;;;;;;;;;8.90;99.90;;;;;;5066243;28;20123;-68
2023/04/16 10:30:38;;;;;;;;;;;8.90;99.90;;;;;;5066178;28;19988;-67
2023/04/16 10:33:05;;;;;;;;;;;9.00;99.90;;;;;;5065761;28;20003;-67
2023/04/16 10:35:32;;;;;;;;;;;9.00;99.90;;;;;;5065797;28;20307;-68
2023/04/16 10:38:20;;;;;;;;;;;9.10;99.90;;;;;;5065786;28;19927;-68
2023/04/16 10:40:47;;;;;;;;;;;9.20;99.90;;;;;;5058623;28;19921;-68
2023/04/16 10:43:17;;;;;;;;;;;9.40;99.90;;;;;;5050163;28;20113;-67
2023/04/16 10:45:45;;;;;;;;;;;9.50;99.90;;;;;;5065515;28;19921;-69
2023/04/16 10:48:13;;;;;;;;;;;9.60;99.90;;;;;;5065725;28;19974;-67
2023/04/16 10:50:40;;;;;;;;;;;9.50;99.90;;;;;;5065378;28;20255;-67
2023/04/16 10:53:20;;;;;;;;;;;9.60;99.90;;;;;;5065576;28;20155;-68
2023/04/16 10:55:56;;;;;;;;;;;9.70;99.90;;;;;;5061021;28;19928;-68
2023/04/16 10:58:29;;;;;;;;;;;9.70;99.90;;;;;;5065064;28;20208;-67
2023/04/16 11:00:58;;;;;;;;;;;9.70;99.90;;;;;;5065480;28;20204;-67
2023/04/16 11:03:25;;;;;;;;;;;9.70;99.90;;;;;;5065120;28;19921;-68
2023/04/16 11:05:52;;;;;;;;;;;9.70;99.90;;;;;;5064858;28;19928;-68
2023/04/16 11:08:18;;;;;;;;;;;9.70;99.90;;;;;;5065326;28;19956;-67
2023/04/16 11:10:45;;;;;;;;;;;9.60;99.90;;;;;;5064600;28;20232;-68
2023/04/16 11:13:12;;;;;;;;;;;9.60;99.90;;;;;;5059992;28;20262;-68
2023/04/16 11:15:39;;;;;;;;;;;9.70;99.90;;;;;;5052093;28;19979;-69
2023/04/16 11:18:08;;;;;;;;;;;9.70;99.90;;;;;;5064974;28;19920;-67
2023/04/16 11:20:35;;;;;;;;;;;9.70;99.90;;;;;;5064981;28;19956;-69
2023/04/16 11:23:01;;;;;;;;;;;9.70;99.90;;;;;;5065148;28;19921;-67
2023/04/16 11:25:29;;;;;;;;;;;9.70;99.90;;;;;;5064717;28;19921;-67
2023/04/16 11:27:57;;;;;;;;;;;9.80;99.90;;;;;;5064830;28;19925;-68
2023/04/16 11:30:28;;;;;;;;;;;9.90;99.90;;;;;;5064614;28;19928;-67
2023/04/16 11:32:55;;;;;;;;;;;9.90;99.90;;;;;;5064613;28;20123;-68
2023/04/16 11:35:23;;;;;;;;;;;9.90;99.90;;;;;;5064758;28;19920;-67
2023/04/16 11:37:49;;;;;;;;;;;10.00;99.90;;;;;;5064278;28;19980;-67
2023/04/16 11:40:16;;;;;;;;;;;10.00;99.90;;;;;;5064721;28;20026;-67
2023/04/16 11:42:43;;;;;;;;;;;10.10;99.90;;;;;;5064675;28;19952;-67
2023/04/16 11:45:10;;;;;;;;;;;10.20;99.90;;;;;;5064571;28;19921;-67
2023/04/16 11:47:42;;;;;;;;;;;10.10;99.90;;;;;;5064219;28;19955;-67
2023/04/16 11:50:21;;;;;;;;;;;10.20;99.90;;;;;;5064353;28;19921;-67
2023/04/16 11:52:50;;;;;;;;;;;10.20;99.90;;;;;;5063865;28;19920;-68
2023/04/16 11:55:17;;;;;;;;;;;10.20;99.90;;;;;;5063673;28;19988;-67
2023/04/16 11:57:44;;;;;;;;;;;10.20;99.90;;;;;;5063459;28;19960;-68
2023/04/16 12:00:12;;;;;;;;;;;10.10;99.90;;;;;;5063654;28;20163;-67
2023/04/16 12:02:40;;;;;;;;;;;10.20;99.90;;;;;;5064222;28;19925;-68
2023/04/16 12:05:08;;;;;;;;;;;10.10;99.90;;;;;;5064385;28;19987;-68
2023/04/16 12:07:43;;;;;;;;;;;10.00;99.90;;;;;;5064118;28;19920;-67
2023/04/16 12:10:12;;;;;;;;;;;10.00;99.90;;;;;;5064340;28;19991;-67
2023/04/16 12:12:38;;;;;;;;;;;10.10;99.90;;;;;;5058758;28;19921;-68
2023/04/16 12:15:05;;;;;;;;;;;10.00;99.90;;;;;;5049570;28;20288;-68
2023/04/16 12:17:32;;;;;;;;;;;10.10;99.90;;;;;;5063897;28;19920;-67
2023/04/16 12:19:59;;;;;;;;;;;10.10;99.90;;;;;;5063775;28;19959;-67
2023/04/16 12:22:27;;;;;;;;;;;10.10;99.90;;;;;;5063680;28;19928;-67
2023/04/16 12:24:55;;;;;;;;;;;10.00;99.90;;;;;;5064103;28;20023;-67
2023/04/16 12:27:25;;;;;;;;;;;10.00;99.90;;;;;;5063763;28;20019;-67
2023/04/16 12:30:02;;;;;;;;;;;10.00;99.90;;;;;;5063297;28;19980;-67
2023/04/16 12:32:29;;;;;;;;;;;10.00;99.90;;;;;;5063783;28;19959;-67
2023/04/16 12:34:55;;;;;;;;;;;10.00;99.90;;;;;;5063443;28;19924;-67
2023/04/16 12:37:22;;;;;;;;;;;10.10;99.90;;;;;;5062023;28;19978;-67
2023/04/16 12:39:49;;;;;;;;;;;10.20;99.90;;;;;;5062609;28;19928;-67
2023/04/16 12:42:16;;;;;;;;;;;10.20;99.90;;;;;;5059826;28;19921;-68
2023/04/16 12:44:43;;;;;;;;;;;10.30;99.90;;;;;;5043785;28;20116;-69
2023/04/16 12:47:10;;;;;;;;;;;10.30;99.90;;;;;;5050792;28;19986;-67
2023/04/16 12:49:37;;;;;;;;;;;10.20;99.90;;;;;;5043359;28;20185;-67
2023/04/16 12:52:04;;;;;;;;;;;10.20;99.90;;;;;;5043195;28;19964;-68
2023/04/16 12:54:31;;;;;;;;;;;10.30;99.90;;;;;;5043382;28;19921;-67
2023/04/16 12:56:58;;;;;;;;;;;10.30;99.90;;;;;;5058927;28;19983;-67
2023/04/16 12:59:24;;;;;;;;;;;10.40;99.90;;;;;;5063523;28;19955;-67
2023/04/16 13:01:52;;;;;;;;;;;10.50;99.90;;;;;;5063443;28;19960;-66
2023/04/16 13:04:19;;;;;;;;;;;10.50;99.90;;;;;;5042480;28;19921;-67
2023/04/16 13:06:46;;;;;;;;;;;10.60;99.90;;;;;;5042274;28;19952;-68
2023/04/16 13:09:12;;;;;;;;;;;10.60;99.90;;;;;;5049109;28;19945;-67
2023/04/16 13:11:39;;;;;;;;;;;10.60;99.90;;;;;;5063320;28;19992;-67
2023/04/16 13:14:06;;;;;;;;;;;10.70;99.90;;;;;;5063162;28;19959;-67
2023/04/16 13:16:32;;;;;;;;;;;10.60;99.90;;;;;;5062444;28;19948;-66
2023/04/16 13:19:00;;;;;;;;;;;10.70;99.90;;;;;;5063510;28;19987;-66
2023/04/16 13:21:27;;;;;;;;;;;10.80;99.90;;;;;;5063174;28;19987;-66
2023/04/16 13:23:54;;;;;;;;;;;10.80;99.90;;;;;;5063136;28;20267;-67
2023/04/16 13:26:21;;;;;;;;;;;10.90;99.90;;;;;;5055383;28;20128;-66
2023/04/16 13:28:47;;;;;;;;;;;10.90;99.90;;;;;;5066856;28;19955;-67
2023/04/16 13:31:18;;;;;;;;;;;11.00;99.90;;;;;;5066916;28;19920;-67
2023/04/16 13:33:45;;;;;;;;;;;11.10;99.90;;;;;;5067092;28;19948;-67
2023/04/16 13:36:13;;;;;;;;;;;11.10;99.90;;;;;;5066788;28;19920;-67
2023/04/16 13:38:41;;;;;;;;;;;11.20;99.90;;;;;;5066876;28;19924;-67
2023/04/16 13:41:07;;;;;;;;;;;11.20;99.90;;;;;;5066904;28;19927;-67
2023/04/16 13:43:34;;;;;;;;;;;11.30;99.90;;;;;;5066602;28;19927;-66
2023/04/16 13:46:00;;;;;;;;;;;11.30;99.90;;;;;;5066297;28;19952;-66
2023/04/16 13:48:28;;;;;;;;;;;11.40;99.90;;;;;;5066635;28;19921;-66
2023/04/16 13:50:54;;;;;;;;;;;11.50;99.90;;;;;;5066786;28;19921;-68
2023/04/16 13:53:22;;;;;;;;;;;11.60;99.90;;;;;;5066412;28;20378;-68
2023/04/16 13:55:49;;;;;;;;;;;11.80;99.90;;;;;;5066706;28;19920;-67
2023/04/16 13:58:16;;;;;;;;;;;11.90;99.90;;;;;;5066100;28;19928;-68
2023/04/16 14:00:43;;;;;;;;;;;12.00;99.90;;;;;;5058495;28;19984;-70
2023/04/16 14:03:10;;;;;;;;;;;12.10;99.90;;;;;;5048510;28;19921;-68
2023/04/16 14:05:36;;;;;;;;;;;12.10;99.90;;;;;;5046613;28;19921;-66
2023/04/16 14:08:03;;;;;;;;;;;12.10;99.90;;;;;;5046478;28;19987;-66
2023/04/16 14:10:31;;;;;;;;;;;12.00;99.90;;;;;;5047556;28;19928;-68
2023/04/16 14:12:59;;;;;;;;;;;11.90;99.90;;;;;;5064840;28;20123;-67
2023/04/16 14:15:28;;;;;;;;;;;11.80;99.90;;;;;;5064450;28;19988;-66
2023/04/16 14:17:55;;;;;;;;;;;11.80;99.90;;;;;;5065311;28;19925;-66
2023/04/16 14:20:22;;;;;;;;;;;11.70;99.90;;;;;;5065423;28;19959;-67
2023/04/16 14:22:48;;;;;;;;;;;11.60;99.90;;;;;;5065438;28;20212;-67
2023/04/16 14:25:15;;;;;;;;;;;11.60;99.90;;;;;;5066162;28;19920;-67
2023/04/16 14:27:43;;;;;;;;;;;11.60;99.90;;;;;;5065708;28;19928;-68
2023/04/16 14:30:10;;;;;;;;;;;11.40;99.90;;;;;;5058978;28;19984;-67